»·PEaware :: N308PL KVCV-KSDM

N308PL :: KVCV-KSDM

FLIGHT INFORMATION

Flight Status: Arrived
Operator: Privately registered:
United States
More flights under this callsign
Pilot: Kenneth T. (31352)
Aircraft: CESSNA 172 SKYHAWK
(C172)
More flights by this aircraft type
Origin: KVCV Socal Logistics
United States
Destination: KSDM Brown Mun
United States
More flights between these airports :: More routes between these airports
Route:
File this flight plan on PilotEdge
Remarks:
Altitude:
(Current/Filed)
7,500ft
Speed:
(Current/Filed)
110kts
Departed: 20-Nov-20 03:51 PM
Arrived: 20-Nov-20 05:02 PM
Distance/Time
Traveled:
123nm/1:10
Distance/Time
To Go:
Arrived

Flight Plot

Page will automatically refresh every two minutes.


Map Options




Map Legend


Flown Route
Filed Route
Departure Airport
Arrival Airport
Navaid (VOR, NDB)
Fix

Horizontal Profiles

Position Reports

Time Latitude Longitude Heading Altitude Ground
Speed
20-Nov-20 15:36 34.588333 -117.376341 313 2871ft 0kts
20-Nov-20 15:37 34.588333 -117.376341 313 2871ft 0kts
20-Nov-20 15:38 34.588333 -117.376341 313 2871ft 0kts
20-Nov-20 15:39 34.588333 -117.376341 313 2871ft 0kts
20-Nov-20 15:40 34.588333 -117.376341 313 2871ft 0kts
20-Nov-20 15:41 34.588333 -117.376341 313 2871ft 0kts
20-Nov-20 15:42 34.588333 -117.376341 313 2871ft 0kts
20-Nov-20 15:43 34.588333 -117.376341 313 2871ft 0kts
20-Nov-20 15:44 34.588333 -117.376341 313 2871ft 0kts
20-Nov-20 15:45 34.589433 -117.376767 19 2869ft 19kts
20-Nov-20 15:46 34.593382 -117.368456 85 2858ft 29kts
20-Nov-20 15:47 34.596686 -117.367136 11 2848ft 17kts
20-Nov-20 15:48 34.598988 -117.366661 31 2844ft 0kts
20-Nov-20 15:49 34.599557 -117.366497 4 2842ft 13kts
20-Nov-20 15:50 34.591620 -117.377423 224 3033ft 79kts
20-Nov-20 15:51 34.573877 -117.394251 205 3637ft 83kts
20-Nov-20 15:52 34.553900 -117.407857 211 4238ft 83kts
20-Nov-20 15:53 34.530439 -117.407500 177 4766ft 88kts
20-Nov-20 15:54 34.506639 -117.405662 177 5344ft 85kts
20-Nov-20 15:55 34.482469 -117.403621 177 5849ft 88kts
20-Nov-20 15:56 34.458078 -117.401360 177 6352ft 88kts
20-Nov-20 15:57 34.433505 -117.396977 173 6829ft 89kts
20-Nov-20 15:58 34.408858 -117.392220 173 7286ft 90kts
20-Nov-20 15:59 34.385059 -117.399383 207 7589ft 102kts
20-Nov-20 16:00 34.352218 -117.396189 163 7557ft 129kts
20-Nov-20 16:01 34.323050 -117.371852 145 7539ft 127kts
20-Nov-20 16:02 34.294445 -117.346707 145 7517ft 127kts
20-Nov-20 16:03 34.265782 -117.321902 151 7496ft 126kts
20-Nov-20 16:04 34.232608 -117.310259 172 7479ft 124kts
20-Nov-20 16:05 34.198812 -117.303294 173 7479ft 123kts
20-Nov-20 16:06 34.165074 -117.296510 173 7479ft 122kts
20-Nov-20 16:07 34.131435 -117.289771 173 7479ft 122kts
20-Nov-20 16:08 34.097658 -117.283610 174 7479ft 122kts
20-Nov-20 16:09 34.063970 -117.277315 174 7478ft 122kts
20-Nov-20 16:10 34.030397 -117.270723 174 7476ft 122kts
20-Nov-20 16:11 33.996967 -117.264089 174 7473ft 120kts
20-Nov-20 16:12 33.964367 -117.257610 174 7471ft 117kts
20-Nov-20 16:13 33.932275 -117.251234 174 7470ft 116kts
20-Nov-20 16:14 33.900288 -117.244883 174 7470ft 116kts
20-Nov-20 16:15 33.868424 -117.238560 174 7472ft 115kts
20-Nov-20 16:16 33.836779 -117.232284 174 7474ft 115kts
20-Nov-20 16:17 33.805115 -117.226009 175 7476ft 115kts
20-Nov-20 16:18 33.773541 -117.219756 175 7478ft 114kts
20-Nov-20 16:19 33.742158 -117.213546 175 7478ft 114kts
20-Nov-20 16:20 33.711022 -117.207390 175 7477ft 113kts
20-Nov-20 16:21 33.680231 -117.201130 174 7476ft 112kts
20-Nov-20 16:22 33.649630 -117.194811 175 7475ft 111kts
20-Nov-20 16:23 33.619255 -117.188743 175 7474ft 110kts
20-Nov-20 16:24 33.589012 -117.182762 175 7473ft 109kts
20-Nov-20 16:25 33.558912 -117.176829 175 7471ft 109kts
20-Nov-20 16:26 33.528879 -117.170918 175 7469ft 109kts
20-Nov-20 16:27 33.498850 -117.165013 175 7466ft 109kts
20-Nov-20 16:28 33.468848 -117.159117 175 7464ft 109kts
20-Nov-20 16:29 33.438795 -117.153216 174 7461ft 109kts
20-Nov-20 16:30 33.408824 -117.147333 175 7462ft 109kts
20-Nov-20 16:31 33.378842 -117.141449 175 7472ft 109kts
20-Nov-20 16:32 33.348635 -117.135547 175 7402ft 114kts
20-Nov-20 16:33 33.316902 -117.129379 175 6898ft 114kts
20-Nov-20 16:34 33.285893 -117.123324 175 6393ft 113kts
20-Nov-20 16:35 33.254898 -117.117269 175 5891ft 113kts
20-Nov-20 16:36 33.223889 -117.111195 175 5492ft 109kts
20-Nov-20 16:37 33.193607 -117.105213 175 5499ft 111kts
20-Nov-20 16:38 33.162989 -117.099251 175 5499ft 112kts
20-Nov-20 16:39 33.132183 -117.093250 175 5499ft 111kts
20-Nov-20 16:40 33.101741 -117.087318 175 5499ft 110kts
20-Nov-20 16:41 33.071367 -117.081407 175 5500ft 111kts
20-Nov-20 16:42 33.040814 -117.074662 172 5500ft 112kts
20-Nov-20 16:43 33.010207 -117.067683 174 5500ft 112kts
20-Nov-20 16:44 32.979325 -117.061577 175 5501ft 113kts
20-Nov-20 16:45 32.948137 -117.055488 175 5501ft 113kts
20-Nov-20 16:46 32.916984 -117.049414 175 5500ft 113kts
20-Nov-20 16:47 32.885852 -117.043909 183 5498ft 112kts
20-Nov-20 16:48 32.854780 -117.037502 174 5498ft 113kts
20-Nov-20 16:49 32.823605 -117.031310 175 5496ft 113kts
20-Nov-20 16:50 32.792323 -117.025225 175 5495ft 114kts
20-Nov-20 16:51 32.761144 -117.019168 175 5497ft 111kts
20-Nov-20 16:52 32.730844 -117.013309 175 5097ft 107kts
20-Nov-20 16:53 32.702045 -117.007723 175 4582ft 99kts
20-Nov-20 16:54 32.674759 -117.002763 176 3818ft 99kts
20-Nov-20 16:55 32.648946 -116.990842 160 3021ft 99kts
20-Nov-20 16:56 32.622683 -116.986269 186 2249ft 94kts
20-Nov-20 16:57 32.600938 -116.975783 108 1656ft 100kts
20-Nov-20 16:59 32.592640 -116.945638 112 1392ft 98kts
20-Nov-20 17:00 32.574585 -116.947271 233 982ft 73kts
20-Nov-20 17:01 32.571676 -116.968635 277 514ft 57kts
20-Nov-20 17:02 32.571401 -116.974157 186 508ft 2kts
20-Nov-20 17:03 32.570083 -116.977504 276 509ft 19kts
20-Nov-20 17:04 32.570493 -116.982228 275 513ft 17kts
20-Nov-20 17:05 32.570189 -116.985180 282 516ft 0kts

Navigation Log

Ident Type
Flight plan parsing failed, navigation log unavailable